71NC weather

K & D Airport
Elon College, North Carolina, United States

Public forecast

Using degrees Fahrenheit for public forecast. Weather courtesy of forecast.io.

METAR (pilot weather report)

Closest report is Burlington Alamance Regional Airport, 13.0 nm (24.0 km) S. Retrieved 2019/09/22 09:54 UTC (1 hour ago):

KBUY 220954Z AUTO 00000KT 10SM CLR 17/14 A3020 RMK AO2 SLP221 T01670144

TAF (pilot weather forecast)

Closest forecast is Danville Regional Airport, 19.4 nm (35.9 km) NNE. Retrieved 2019/09/22 06:36 UTC (4 hours ago):

TAF KDAN 220535Z 2206/2306 VRB02KT P6SM BKN100 FM220900 00000KT P6SM FEW060 FM221700 22005KT P6SM FEW070 FM222100 20006KT P6SM FEW050 FM230100 VRB04KT P6SM FEW050